createdAt,value
2023-05-11T00:02:23.648Z,101335.25
2023-05-11T00:04:53.521Z,101330.69
2023-05-11T00:07:33.755Z,101331.28
2023-05-11T00:10:05.523Z,101337.59
2023-05-11T00:12:35.355Z,101338.69
2023-05-11T00:15:08.337Z,101343.50
2023-05-11T00:17:38.844Z,101342.97
2023-05-11T00:20:11.707Z,101342.66
2023-05-11T00:22:41.919Z,101343.19
2023-05-11T00:25:13.230Z,101341.66
2023-05-11T00:27:47.114Z,101348.75
2023-05-11T00:30:16.319Z,101346.94
2023-05-11T00:32:45.820Z,101340.38
2023-05-11T00:35:16.416Z,101349.09
2023-05-11T00:37:45.445Z,101338.47
2023-05-11T00:40:13.905Z,101337.06
2023-05-11T00:42:44.973Z,101338.66
2023-05-11T00:45:13.242Z,101333.72
2023-05-11T00:47:41.835Z,101335.13
2023-05-11T00:50:15.698Z,101337.38
2023-05-11T00:52:47.733Z,101339.50
2023-05-11T00:55:16.182Z,101338.22
2023-05-11T00:57:44.892Z,101336.19
2023-05-11T01:00:20.789Z,101344.94
2023-05-11T01:02:51.426Z,101336.41
2023-05-11T01:05:20.858Z,101338.03
2023-05-11T01:08:01.207Z,101346.81
2023-05-11T01:10:39.239Z,101346.41
2023-05-11T01:13:18.098Z,101344.69
2023-05-11T01:19:40.729Z,101341.78
2023-05-11T01:22:17.108Z,101346.41
2023-05-11T01:25:02.564Z,101342.84
2023-05-11T01:27:48.140Z,101342.31
2023-05-11T01:30:37.299Z,101348.44
2023-05-11T01:33:11.308Z,101345.75
2023-05-11T01:35:44.839Z,101347.78
2023-05-11T01:38:15.752Z,101349.09
2023-05-11T01:40:47.482Z,101348.31
2023-05-11T01:43:22.792Z,101353.59
2023-05-11T01:45:53.764Z,101349.84
2023-05-11T01:48:25.819Z,101347.16
2023-05-11T01:50:55.862Z,101359.81
2023-05-11T01:53:25.857Z,101352.19
2023-05-11T01:55:56.949Z,101356.25
2023-05-11T01:58:27.035Z,101363.91
2023-05-11T02:01:00.063Z,101362.09
2023-05-11T02:03:32.106Z,101367.00
2023-05-11T02:06:02.019Z,101371.50
2023-05-11T02:08:32.123Z,101377.75
2023-05-11T02:11:03.775Z,101379.03
2023-05-11T02:13:35.891Z,101379.03
2023-05-11T02:16:09.041Z,101381.94
2023-05-11T02:18:40.467Z,101381.19
2023-05-11T02:21:12.391Z,101383.66
2023-05-11T02:23:41.778Z,101377.09
2023-05-11T02:26:12.642Z,101381.81
2023-05-11T02:28:40.904Z,101383.75
2023-05-11T02:31:17.651Z,101383.53
2023-05-11T02:33:52.083Z,101382.56
2023-05-11T02:36:23.377Z,101387.31
2023-05-11T02:38:54.865Z,101381.94
2023-05-11T02:41:28.286Z,101379.88
2023-05-11T02:43:59.843Z,101388.13
2023-05-11T02:46:34.963Z,101382.44
2023-05-11T02:49:07.045Z,101385.66
2023-05-11T02:51:39.218Z,101383.97
2023-05-11T02:54:10.805Z,101385.44
2023-05-11T02:56:39.855Z,101394.06
2023-05-11T02:59:07.853Z,101389.75
2023-05-11T03:01:43.136Z,101391.56
2023-05-11T03:04:11.804Z,101395.78
2023-05-11T03:06:40.573Z,101396.88
2023-05-11T03:09:10.177Z,101389.88
2023-05-11T03:11:39.247Z,101397.59
2023-05-11T03:14:08.270Z,101392.97
2023-05-11T03:16:39.265Z,101387.53
2023-05-11T03:19:08.955Z,101389.34
2023-05-11T03:21:38.611Z,101384.38
2023-05-11T03:24:08.821Z,101389.34
2023-05-11T03:26:38.339Z,101390.41
2023-05-11T03:29:09.869Z,101389.13
2023-05-11T03:31:39.551Z,101392.91
2023-05-11T03:34:08.143Z,101389.00
2023-05-11T03:36:36.966Z,101393.41
2023-05-11T03:39:09.271Z,101387.94
2023-05-11T03:41:42.540Z,101384.63
2023-05-11T03:44:25.008Z,101380.66
2023-05-11T03:46:57.023Z,101391.91
2023-05-11T03:49:26.511Z,101385.38
2023-05-11T03:51:55.196Z,101388.47
2023-05-11T03:54:29.306Z,101383.22
2023-05-11T03:56:58.060Z,101387.06
2023-05-11T03:59:37.942Z,101379.00
2023-05-11T04:02:07.884Z,101382.44
2023-05-11T04:04:36.827Z,101380.81
2023-05-11T04:07:07.049Z,101376.66
2023-05-11T04:09:35.363Z,101377.59
2023-05-11T04:12:04.318Z,101381.91
2023-05-11T04:14:32.562Z,101388.69
2023-05-11T04:17:01.570Z,101388.69
2023-05-11T04:19:31.130Z,101383.63
2023-05-11T04:22:00.329Z,101385.44
2023-05-11T04:24:28.407Z,101397.44
2023-05-11T04:27:00.707Z,101398.00
2023-05-11T04:29:29.995Z,101394.00
2023-05-11T04:31:59.505Z,101392.09
2023-05-11T04:34:28.552Z,101401.25
2023-05-11T04:36:59.283Z,101405.50
2023-05-11T04:39:27.692Z,101400.25
2023-05-11T04:41:56.445Z,101404.53
2023-05-11T04:44:25.701Z,101403.16
2023-05-11T04:46:57.959Z,101405.19
2023-05-11T04:49:27.371Z,101407.53
2023-05-11T04:51:55.651Z,101410.88
2023-05-11T04:54:26.460Z,101411.78
2023-05-11T04:56:54.630Z,101414.16
2023-05-11T04:59:24.125Z,101415.78
2023-05-11T05:01:53.270Z,101411.34
2023-05-11T05:04:21.604Z,101414.38
2023-05-11T05:06:50.008Z,101422.22
2023-05-11T05:09:20.223Z,101416.69
2023-05-11T05:11:52.523Z,101417.44
2023-05-11T05:14:25.367Z,101423.88
2023-05-11T05:16:54.627Z,101418.63
2023-05-11T05:19:24.512Z,101418.63
2023-05-11T05:21:53.528Z,101422.44
2023-05-11T05:24:21.553Z,101423.50
2023-05-11T05:26:51.238Z,101413.63
2023-05-11T05:29:19.644Z,101424.38
2023-05-11T05:31:47.644Z,101429.88
2023-05-11T05:36:58.312Z,101428.53
2023-05-11T05:39:26.514Z,101434.34
2023-05-11T05:41:57.099Z,101433.81
2023-05-11T05:44:26.150Z,101444.50
2023-05-11T05:46:54.299Z,101434.75
2023-05-11T05:49:22.201Z,101431.88
2023-05-11T05:51:51.615Z,101440.28
2023-05-11T05:54:19.768Z,101446.28
2023-05-11T05:56:48.508Z,101441.94
2023-05-11T05:59:20.746Z,101446.72
2023-05-11T06:01:49.009Z,101454.13
2023-05-11T06:04:18.754Z,101450.28
2023-05-11T06:06:47.553Z,101448.84
2023-05-11T06:09:16.672Z,101458.75
2023-05-11T06:11:45.077Z,101454.16
2023-05-11T06:14:14.795Z,101458.50
2023-05-11T06:16:45.043Z,101451.22
2023-05-11T06:19:13.580Z,101461.97
2023-05-11T06:21:43.074Z,101461.31
2023-05-11T06:24:11.023Z,101459.16
2023-05-11T06:26:39.609Z,101464.66
2023-05-11T06:29:09.189Z,101456.06
2023-05-11T06:31:37.340Z,101464.38
2023-05-11T06:34:09.310Z,101460.69
2023-05-11T06:36:37.785Z,101465.59
2023-05-11T06:39:07.247Z,101461.22
2023-05-11T06:41:35.375Z,101454.25
2023-05-11T06:44:04.025Z,101462.78
2023-05-11T06:46:32.410Z,101461.19
2023-05-11T06:49:04.251Z,101469.78
2023-05-11T06:51:34.062Z,101469.13
2023-05-11T06:54:02.790Z,101468.38
2023-05-11T06:56:34.205Z,101469.03
2023-05-11T06:59:02.695Z,101467.97
2023-05-11T07:01:31.803Z,101470.66
2023-05-11T07:04:01.350Z,101467.50
2023-05-11T07:06:29.945Z,101475.34
2023-05-11T07:08:59.562Z,101478.19
2023-05-11T07:11:28.029Z,101475.25
2023-05-11T07:13:56.027Z,101474.31
2023-05-11T07:16:24.921Z,101467.53
2023-05-11T07:18:53.395Z,101471.06
2023-05-11T07:21:22.876Z,101470.22
2023-05-11T07:23:51.412Z,101475.38
2023-05-11T07:26:22.093Z,101475.25
2023-05-11T07:28:50.351Z,101473.66
2023-05-11T07:31:18.378Z,101475.25
2023-05-11T07:33:46.320Z,101472.03
2023-05-11T07:36:14.530Z,101478.25
2023-05-11T07:38:43.595Z,101477.94
2023-05-11T07:41:12.622Z,101487.66
2023-05-11T07:43:42.520Z,101477.47
2023-05-11T07:46:11.351Z,101484.47
2023-05-11T07:48:39.733Z,101484.91
2023-05-11T07:51:11.677Z,101486.72
2023-05-11T07:53:41.180Z,101482.84
2023-05-11T07:56:12.413Z,101480.59
2023-05-11T07:58:44.607Z,101486.91
2023-05-11T08:01:13.420Z,101483.19
2023-05-11T08:03:43.601Z,101495.50
2023-05-11T08:06:12.572Z,101491.50
2023-05-11T08:08:41.076Z,101491.97
2023-05-11T08:11:11.957Z,101496.75
2023-05-11T08:13:40.719Z,101497.13
2023-05-11T08:16:10.589Z,101496.88
2023-05-11T08:18:39.006Z,101501.44
2023-05-11T08:21:08.721Z,101499.75
2023-05-11T08:23:36.909Z,101497.81
2023-05-11T08:26:05.126Z,101498.94
2023-05-11T08:28:33.569Z,101494.38
2023-05-11T08:31:02.498Z,101496.31
2023-05-11T08:33:38.729Z,101500.06
2023-05-11T08:36:08.925Z,101502.69
2023-05-11T08:38:38.121Z,101501.25
2023-05-11T08:41:07.969Z,101501.47
2023-05-11T08:43:42.644Z,101501.00
2023-05-11T08:46:14.203Z,101496.94
2023-05-11T08:48:46.393Z,101501.47
2023-05-11T08:51:14.662Z,101500.19
2023-05-11T08:53:42.825Z,101501.69
2023-05-11T08:56:13.513Z,101503.63
2023-05-11T08:58:43.789Z,101508.06
2023-05-11T09:01:34.363Z,101495.31
2023-05-11T09:04:08.031Z,101507.81
2023-05-11T09:06:42.973Z,101505.31
2023-05-11T09:09:11.761Z,101504.81
2023-05-11T09:11:41.040Z,101509.03
2023-05-11T09:14:09.786Z,101504.38
2023-05-11T09:16:38.187Z,101506.41
2023-05-11T09:19:20.026Z,101511.13
2023-05-11T09:21:48.731Z,101516.00
2023-05-11T09:24:19.311Z,101507.06
2023-05-11T09:26:47.713Z,101510.88
2023-05-11T09:29:21.642Z,101511.00
2023-05-11T09:31:52.640Z,101513.25
2023-05-11T09:34:23.903Z,101515.84
2023-05-11T09:36:57.952Z,101510.53
2023-05-11T09:39:41.684Z,101504.25
2023-05-11T09:42:16.934Z,101512.47
2023-05-11T09:44:45.418Z,101513.44
2023-05-11T09:47:14.772Z,101511.53
2023-05-11T09:49:45.813Z,101516.84
2023-05-11T09:52:14.921Z,101505.00
2023-05-11T09:54:44.933Z,101527.72
2023-05-11T09:57:28.232Z,101533.53
2023-05-11T09:59:58.138Z,101534.38
2023-05-11T10:02:30.073Z,101533.59
2023-05-11T10:05:02.888Z,101526.25
2023-05-11T10:07:32.127Z,101519.53
2023-05-11T10:10:02.294Z,101524.00
2023-05-11T10:12:34.175Z,101517.66
2023-05-11T10:15:06.438Z,101519.53
2023-05-11T10:17:36.121Z,101520.19
2023-05-11T10:20:08.254Z,101519.63
2023-05-11T10:22:39.190Z,101515.19
2023-05-11T10:25:09.222Z,101507.88
2023-05-11T10:27:38.525Z,101518.44
2023-05-11T10:30:09.223Z,101510.25
2023-05-11T10:32:39.083Z,101500.16
2023-05-11T10:35:09.896Z,101506.91
2023-05-11T10:37:40.561Z,101505.09
2023-05-11T10:40:12.873Z,101500.94
2023-05-11T10:43:05.561Z,101505.19
2023-05-11T10:45:41.775Z,101508.72
2023-05-11T10:48:51.213Z,101504.56
2023-05-11T10:51:41.886Z,101508.63
2023-05-11T10:54:42.029Z,101510.25
2023-05-11T10:57:16.868Z,101508.63
2023-05-11T11:00:10.697Z,101495.66
2023-05-11T11:02:39.352Z,101503.50
2023-05-11T11:05:14.126Z,101497.50
2023-05-11T11:08:04.490Z,101497.38
2023-05-11T11:10:37.457Z,101505.59
2023-05-11T11:13:09.223Z,101505.88
2023-05-11T11:16:15.480Z,101501.69
2023-05-11T11:18:44.595Z,101500.56
2023-05-11T11:21:16.365Z,101495.69
2023-05-11T11:23:52.750Z,101495.03
2023-05-11T11:26:50.685Z,101496.88
2023-05-11T11:29:18.855Z,101494.94
2023-05-11T11:31:46.904Z,101505.13
2023-05-11T11:34:36.445Z,101503.38
2023-05-11T11:37:05.588Z,101500.69
2023-05-11T11:40:13.313Z,101501.97
2023-05-11T11:42:44.473Z,101506.53
2023-05-11T11:45:33.614Z,101505.44
2023-05-11T11:48:21.498Z,101505.47
2023-05-11T11:50:50.842Z,101504.81
2023-05-11T11:54:09.609Z,101499.84
2023-05-11T11:56:46.461Z,101496.31
2023-05-11T11:59:16.202Z,101495.31
2023-05-11T12:01:45.559Z,101495.16
2023-05-11T12:04:41.131Z,101494.75
2023-05-11T12:07:11.508Z,101495.00
2023-05-11T12:09:41.207Z,101505.97
2023-05-11T12:12:13.122Z,101500.69
2023-05-11T12:14:44.908Z,101496.78
2023-05-11T12:17:19.304Z,101490.91
2023-05-11T12:19:48.494Z,101502.56
2023-05-11T12:22:22.966Z,101494.47
2023-05-11T12:24:57.686Z,101484.41
2023-05-11T12:27:29.840Z,101492.13
2023-05-11T12:29:59.669Z,101492.00
2023-05-11T12:32:29.288Z,101490.72
2023-05-11T12:35:05.871Z,101493.91
2023-05-11T12:37:34.312Z,101493.16
2023-05-11T12:40:02.449Z,101492.13
2023-05-11T12:42:35.216Z,101494.91
2023-05-11T12:45:04.196Z,101494.91
2023-05-11T12:47:36.578Z,101497.22
2023-05-11T12:50:06.468Z,101491.72
2023-05-11T12:52:35.128Z,101481.72
2023-05-11T12:55:05.989Z,101487.56
2023-05-11T12:57:35.381Z,101488.72
2023-05-11T13:00:13.092Z,101485.22
2023-05-11T13:02:52.124Z,101480.22
2023-05-11T13:05:25.130Z,101484.34
2023-05-11T13:08:01.430Z,101478.78
2023-05-11T13:10:31.849Z,101477.19
2023-05-11T13:13:01.890Z,101483.03
2023-05-11T13:15:30.818Z,101480.63
2023-05-11T13:18:00.102Z,101479.78
2023-05-11T13:20:32.404Z,101475.03
2023-05-11T13:23:08.583Z,101470.16
2023-05-11T13:25:53.100Z,101467.94
2023-05-11T13:28:25.341Z,101466.94
2023-05-11T13:30:59.824Z,101459.94
2023-05-11T13:33:28.066Z,101455.69
2023-05-11T13:35:55.998Z,101464.50
2023-05-11T13:38:24.209Z,101456.94
2023-05-11T13:40:52.278Z,101461.09
2023-05-11T13:43:20.568Z,101457.34
2023-05-11T13:45:53.277Z,101463.22
2023-05-11T13:48:21.292Z,101452.41
2023-05-11T13:50:49.225Z,101459.94
2023-05-11T13:53:17.399Z,101454.06
2023-05-11T13:55:45.435Z,101450.88
2023-05-11T13:58:13.600Z,101448.78
2023-05-11T14:00:43.482Z,101444.34
2023-05-11T14:03:15.728Z,101437.06
2023-05-11T14:05:43.603Z,101435.22
2023-05-11T14:08:12.566Z,101420.09
2023-05-11T14:10:40.439Z,101428.06
2023-05-11T14:13:08.336Z,101420.78
2023-05-11T14:15:37.374Z,101425.81
2023-05-11T14:18:07.861Z,101425.09
2023-05-11T14:20:38.617Z,101422.97
2023-05-11T14:23:06.605Z,101427.81
2023-05-11T14:25:36.118Z,101419.28
2023-05-11T14:28:04.034Z,101416.72
2023-05-11T14:30:33.108Z,101421.13
2023-05-11T14:33:01.374Z,101424.56
2023-05-11T14:35:29.234Z,101419.38
2023-05-11T14:37:58.529Z,101426.69
2023-05-11T14:40:26.651Z,101417.41
2023-05-11T14:42:54.602Z,101413.00
2023-05-11T14:45:22.590Z,101419.13
2023-05-11T14:47:52.592Z,101417.41
2023-05-11T14:50:20.870Z,101417.44
2023-05-11T14:52:49.039Z,101415.16
2023-05-11T14:55:21.522Z,101415.13
2023-05-11T14:57:49.451Z,101413.38
2023-05-11T15:00:18.553Z,101410.72
2023-05-11T15:02:46.595Z,101408.34
2023-05-11T15:05:14.523Z,101411.84
2023-05-11T15:07:42.409Z,101400.56
2023-05-11T15:10:12.003Z,101413.25
2023-05-11T15:12:41.697Z,101397.88
2023-05-11T15:15:11.180Z,101399.44
2023-05-11T15:17:39.108Z,101406.91
2023-05-11T15:20:08.382Z,101408.63
2023-05-11T15:22:36.236Z,101414.50
2023-05-11T15:25:04.280Z,101414.00
2023-05-11T15:27:32.513Z,101411.97
2023-05-11T15:30:03.871Z,101416.66
2023-05-11T15:32:32.232Z,101405.78
2023-05-11T15:35:00.480Z,101408.34
2023-05-11T15:37:29.232Z,101405.94
2023-05-11T15:39:57.493Z,101413.69
2023-05-11T15:42:25.748Z,101407.28
2023-05-11T15:44:54.055Z,101405.28
2023-05-11T15:47:23.621Z,101413.09
2023-05-11T15:49:51.721Z,101406.81
2023-05-11T15:52:19.682Z,101422.09
2023-05-11T15:54:47.637Z,101412.59
2023-05-11T15:57:15.766Z,101405.16
2023-05-11T15:59:43.848Z,101407.72
2023-05-11T16:02:12.308Z,101407.16
2023-05-11T16:04:41.857Z,101412.28
2023-05-11T16:07:09.849Z,101413.44
2023-05-11T16:09:37.814Z,101411.03
2023-05-11T16:12:06.384Z,101418.41
2023-05-11T16:14:34.640Z,101415.41
2023-05-11T16:17:02.853Z,101409.44
2023-05-11T16:19:31.535Z,101407.84
2023-05-11T16:22:01.034Z,101415.09
2023-05-11T16:24:31.595Z,101414.25
2023-05-11T16:27:01.170Z,101409.66
2023-05-11T16:29:29.161Z,101411.09
2023-05-11T16:31:57.194Z,101409.81
2023-05-11T16:34:25.109Z,101405.66
2023-05-11T16:36:53.301Z,101403.53
2023-05-11T16:39:22.835Z,101417.38
2023-05-11T16:41:50.907Z,101410.38
2023-05-11T16:44:19.036Z,101400.28
2023-05-11T16:46:46.961Z,101403.00
2023-05-11T16:49:14.990Z,101412.00
2023-05-11T16:51:43.422Z,101409.16
2023-05-11T16:54:12.561Z,101410.28
2023-05-11T16:56:41.907Z,101411.25
2023-05-11T16:59:11.083Z,101400.56
2023-05-11T17:01:39.206Z,101406.84
2023-05-11T17:04:07.184Z,101405.16
2023-05-11T17:06:35.267Z,101406.28
2023-05-11T17:09:03.254Z,101406.00
2023-05-11T17:11:31.749Z,101413.84
2023-05-11T17:14:01.037Z,101409.69
2023-05-11T17:16:29.521Z,101413.13
2023-05-11T17:18:59.020Z,101412.69
2023-05-11T17:21:27.154Z,101420.78
2023-05-11T17:23:55.080Z,101418.50
2023-05-11T17:26:25.317Z,101416.81
2023-05-11T17:28:57.873Z,101421.06
2023-05-11T17:31:27.761Z,101413.97
2023-05-11T17:33:58.836Z,101411.41
2023-05-11T17:36:29.580Z,101415.66
2023-05-11T17:38:58.636Z,101419.63
2023-05-11T17:41:26.718Z,101418.19
2023-05-11T17:43:54.782Z,101410.81
2023-05-11T17:46:23.084Z,101407.53
2023-05-11T17:48:54.415Z,101412.22
2023-05-11T17:51:22.601Z,101410.47
2023-05-11T17:53:50.909Z,101412.75
2023-05-11T17:56:19.340Z,101411.59
2023-05-11T17:58:47.672Z,101415.50
2023-05-11T18:01:15.801Z,101421.91
2023-05-11T18:03:44.146Z,101410.66
2023-05-11T18:06:13.938Z,101418.78
2023-05-11T18:08:41.857Z,101416.59
2023-05-11T18:11:13.383Z,101417.47
2023-05-11T18:13:41.468Z,101415.25
2023-05-11T18:16:12.778Z,101414.06
2023-05-11T18:18:42.306Z,101423.31
2023-05-11T18:21:12.305Z,101418.63
2023-05-11T18:23:41.815Z,101426.91
2023-05-11T18:26:09.719Z,101425.03
2023-05-11T18:28:37.980Z,101432.56
2023-05-11T18:31:06.010Z,101433.59
2023-05-11T18:33:33.984Z,101430.72
2023-05-11T18:36:03.230Z,101430.25
2023-05-11T18:38:31.220Z,101442.25
2023-05-11T18:41:05.161Z,101443.84
2023-05-11T18:43:34.538Z,101442.97
2023-05-11T18:46:02.628Z,101446.41
2023-05-11T18:48:30.830Z,101443.19
2023-05-11T18:50:58.980Z,101445.69
2023-05-11T18:53:27.437Z,101447.41
2023-05-11T18:55:56.194Z,101449.00
2023-05-11T18:58:25.850Z,101456.13
2023-05-11T19:00:53.807Z,101455.19
2023-05-11T19:03:23.126Z,101465.63
2023-05-11T19:05:52.036Z,101458.84
2023-05-11T19:08:20.339Z,101466.50
2023-05-11T19:10:49.477Z,101467.81
2023-05-11T19:13:17.642Z,101479.16
2023-05-11T19:15:47.346Z,101482.94
2023-05-11T19:18:15.271Z,101481.63
2023-05-11T19:20:43.495Z,101482.50
2023-05-11T19:23:14.797Z,101488.25
2023-05-11T19:25:43.408Z,101491.66
2023-05-11T19:28:13.576Z,101493.03
2023-05-11T19:30:41.814Z,101485.59
2023-05-11T19:33:15.535Z,101497.03
2023-05-11T19:35:43.610Z,101498.75
2023-05-11T19:38:12.600Z,101503.41
2023-05-11T19:43:13.805Z,101501.84
2023-05-11T19:45:43.603Z,101506.03
2023-05-11T19:48:15.120Z,101508.13
2023-05-11T19:50:43.303Z,101506.78
2023-05-11T19:53:12.104Z,101514.41
2023-05-11T19:55:41.015Z,101516.88
2023-05-11T19:58:09.364Z,101515.31
2023-05-11T20:00:37.565Z,101520.09
2023-05-11T20:03:05.706Z,101513.84
2023-05-11T20:05:35.147Z,101522.41
2023-05-11T20:08:03.293Z,101518.88
2023-05-11T20:10:37.568Z,101521.81
2023-05-11T20:13:06.560Z,101521.53
2023-05-11T20:15:36.736Z,101530.03
2023-05-11T20:18:06.763Z,101531.25
2023-05-11T20:20:36.490Z,101539.59
2023-05-11T20:23:04.965Z,101538.72
2023-05-11T20:25:33.080Z,101537.09
2023-05-11T20:28:06.969Z,101539.31
2023-05-11T20:30:35.005Z,101542.25
2023-05-11T20:35:35.224Z,101545.56
2023-05-11T20:38:03.200Z,101542.59
2023-05-11T20:40:31.371Z,101542.72
2023-05-11T20:42:59.449Z,101551.88
2023-05-11T20:45:27.614Z,101555.59
2023-05-11T20:47:55.969Z,101556.53
2023-05-11T20:50:24.691Z,101555.78
2023-05-11T20:52:54.205Z,101556.88
2023-05-11T20:55:22.598Z,101561.69
2023-05-11T20:57:54.281Z,101561.31
2023-05-11T21:00:22.979Z,101561.94
2023-05-11T21:02:51.285Z,101557.66
2023-05-11T21:05:19.627Z,101563.38
2023-05-11T21:07:48.857Z,101561.56
2023-05-11T21:10:18.873Z,101558.38
2023-05-11T21:12:46.998Z,101570.13
2023-05-11T21:15:18.806Z,101559.78
2023-05-11T21:17:47.207Z,101567.53
2023-05-11T21:20:15.462Z,101579.56
2023-05-11T21:22:43.659Z,101573.09
2023-05-11T21:25:12.579Z,101576.13
2023-05-11T21:27:42.790Z,101573.38
2023-05-11T21:30:11.507Z,101578.56
2023-05-11T21:32:39.443Z,101581.31
2023-05-11T21:35:08.653Z,101574.09
2023-05-11T21:37:37.112Z,101570.44
2023-05-11T21:40:07.382Z,101581.22
2023-05-11T21:42:36.408Z,101599.97
2023-05-11T21:45:06.937Z,101606.78
2023-05-11T21:47:35.108Z,101610.78
2023-05-11T21:50:03.270Z,101599.00
2023-05-11T21:52:31.246Z,101617.38
2023-05-11T21:54:59.181Z,101626.88
2023-05-11T21:57:27.153Z,101627.84
2023-05-11T21:59:55.191Z,101625.16
2023-05-11T22:02:24.724Z,101627.78
2023-05-11T22:04:52.834Z,101627.78
2023-05-11T22:07:21.457Z,101635.66
2023-05-11T22:09:49.361Z,101627.97
2023-05-11T22:12:17.542Z,101630.91
2023-05-11T22:14:45.898Z,101634.44
2023-05-11T22:17:14.226Z,101632.47
2023-05-11T22:19:43.508Z,101640.56
2023-05-11T22:22:13.116Z,101643.50
2023-05-11T22:24:55.222Z,101647.81
2023-05-11T22:27:23.288Z,101646.31
2023-05-11T22:29:52.210Z,101649.19
2023-05-11T22:32:20.258Z,101650.50
2023-05-11T22:34:58.548Z,101654.06
2023-05-11T22:37:26.905Z,101663.47
2023-05-11T22:39:56.716Z,101660.03
2023-05-11T22:42:24.825Z,101660.13
2023-05-11T22:44:52.932Z,101661.84
2023-05-11T22:47:21.023Z,101660.25
2023-05-11T22:49:50.817Z,101664.03
2023-05-11T22:52:18.877Z,101661.44
2023-05-11T22:54:47.238Z,101659.94
2023-05-11T22:57:17.257Z,101663.06
2023-05-11T22:59:48.064Z,101662.03
2023-05-11T23:02:16.729Z,101667.06
2023-05-11T23:04:45.849Z,101661.06
2023-05-11T23:07:15.366Z,101668.47
2023-05-11T23:09:43.329Z,101667.31
2023-05-11T23:12:11.346Z,101665.47
2023-05-11T23:14:39.510Z,101662.47
2023-05-11T23:17:07.566Z,101662.84
2023-05-11T23:19:36.026Z,101663.28
2023-05-11T23:22:04.300Z,101660.81
2023-05-11T23:24:33.983Z,101651.44
2023-05-11T23:27:03.853Z,101658.13
2023-05-11T23:29:31.924Z,101660.81
2023-05-11T23:32:00.033Z,101661.66
2023-05-11T23:34:28.636Z,101667.13
2023-05-11T23:36:59.770Z,101669.50
2023-05-11T23:39:27.663Z,101669.00
2023-05-11T23:41:57.433Z,101673.72
2023-05-11T23:44:25.489Z,101677.19
2023-05-11T23:46:53.374Z,101672.75
2023-05-11T23:49:21.522Z,101676.31
2023-05-11T23:51:49.476Z,101674.16
2023-05-11T23:54:17.536Z,101677.28
2023-05-11T23:56:46.975Z,101679.88
2023-05-11T23:59:16.919Z,101677.38
